Time;durP1;ratioP1;P1;durP2;ratioP2;P2;SDS_P1;SDS_P2;PMS_P1;PMS_P2;Temp;Humidity;BMP_temperature;BMP_pressure;BME280_temperature;BME280_humidity;BME280_pressure;Samples;Min_cycle;Max_cycle;Signal;HPM_P1;HPM_P2
2022/04/15 00:02:25;;;;;;;7.57;5.50;;;;;;;;;;4998691;28;20202;-62
2022/04/15 00:04:52;;;;;;;6.23;5.10;;;;;;;;;;4990813;28;20234;-62
2022/04/15 00:07:20;;;;;;;5.77;4.67;;;;;;;;;;5005466;28;20206;-63
2022/04/15 00:09:47;;;;;;;7.50;4.73;;;;;;;;;;4987897;28;20218;-63
2022/04/15 00:12:18;;;;;;;5.83;4.90;;;;;;;;;;4992530;28;20214;-62
2022/04/15 00:14:45;;;;;;;6.93;4.13;;;;;;;;;;5021783;28;20222;-65
2022/04/15 00:17:13;;;;;;;6.10;4.23;;;;;;;;;;5003334;28;20207;-62
2022/04/15 00:19:40;;;;;;;4.80;4.10;;;;;;;;;;4998835;28;21129;-62
2022/04/15 00:22:08;;;;;;;4.50;4.20;;;;;;;;;;5013353;28;20203;-64
2022/04/15 00:24:35;;;;;;;8.27;5.60;;;;;;;;;;4996855;28;20230;-63
2022/04/15 00:27:02;;;;;;;6.43;4.50;;;;;;;;;;5018183;28;20213;-63
2022/04/15 00:29:30;;;;;;;6.17;4.67;;;;;;;;;;5008200;28;20293;-63
2022/04/15 00:31:57;;;;;;;5.07;4.57;;;;;;;;;;5015976;28;20217;-63
2022/04/15 00:34:24;;;;;;;6.03;4.60;;;;;;;;;;5010819;28;20771;-62
2022/04/15 00:36:52;;;;;;;4.30;3.90;;;;;;;;;;5003571;28;20313;-62
2022/04/15 00:39:20;;;;;;;5.07;3.37;;;;;;;;;;5013254;28;20199;-63
2022/04/15 00:41:47;;;;;;;3.90;3.50;;;;;;;;;;4990999;28;20217;-63
2022/04/15 00:44:15;;;;;;;4.63;3.63;;;;;;;;;;5017734;28;20274;-62
2022/04/15 00:46:42;;;;;;;3.90;3.40;;;;;;;;;;4995277;28;20222;-62
2022/04/15 00:49:10;;;;;;;6.37;3.60;;;;;;;;;;4992825;28;20381;-61
2022/04/15 00:51:38;;;;;;;4.73;3.40;;;;;;;;;;5004404;28;20198;-64
2022/04/15 00:54:06;;;;;;;5.87;5.10;;;;;;;;;;5013238;28;20222;-64
2022/04/15 00:56:36;;;;;;;7.17;4.63;;;;;;;;;;5013916;28;20223;-64
2022/04/15 00:59:04;;;;;;;4.93;4.17;;;;;;;;;;4994681;28;20232;-63
2022/04/15 01:01:31;;;;;;;7.10;3.77;;;;;;;;;;4991760;28;20216;-62
2022/04/15 01:04:00;;;;;;;4.43;4.03;;;;;;;;;;5012664;28;20231;-62
2022/04/15 01:06:30;;;;;;;7.40;4.10;;;;;;;;;;5016993;28;20991;-63
2022/04/15 01:08:58;;;;;;;5.47;3.80;;;;;;;;;;5008242;28;20226;-62
2022/04/15 01:11:27;;;;;;;5.43;3.93;;;;;;;;;;5011939;28;20229;-63
2022/04/15 01:13:57;;;;;;;6.70;3.80;;;;;;;;;;5011231;28;20227;-63
2022/04/15 01:16:25;;;;;;;9.27;4.67;;;;;;;;;;5010796;28;20238;-62
2022/04/15 01:18:53;;;;;;;5.17;3.70;;;;;;;;;;5004971;28;20243;-62
2022/04/15 01:21:20;;;;;;;4.30;3.90;;;;;;;;;;5011442;28;20211;-63
2022/04/15 01:23:48;;;;;;;4.17;3.77;;;;;;;;;;4992162;28;20223;-63
2022/04/15 01:26:17;;;;;;;4.03;3.57;;;;;;;;;;5015151;28;20222;-63
2022/04/15 01:28:45;;;;;;;5.03;3.60;;;;;;;;;;5018903;28;20241;-63
2022/04/15 01:31:12;;;;;;;6.03;3.70;;;;;;;;;;5004688;28;20601;-63
2022/04/15 01:33:40;;;;;;;6.77;4.47;;;;;;;;;;5003625;28;20310;-63
2022/04/15 01:36:07;;;;;;;4.77;3.80;;;;;;;;;;4994620;28;20223;-62
2022/04/15 01:38:34;;;;;;;6.03;4.00;;;;;;;;;;4992776;28;20214;-62
2022/04/15 01:41:02;;;;;;;6.73;4.80;;;;;;;;;;5019703;28;20207;-62
2022/04/15 01:43:29;;;;;;;10.57;6.57;;;;;;;;;;4995092;28;20221;-62
2022/04/15 01:45:57;;;;;;;14.90;9.27;;;;;;;;;;4999909;28;20817;-62
2022/04/15 01:48:24;;;;;;;20.83;12.70;;;;;;;;;;4991727;28;20222;-64
2022/04/15 01:50:52;;;;;;;14.87;8.73;;;;;;;;;;4993325;28;20202;-63
2022/04/15 01:53:22;;;;;;;18.10;11.60;;;;;;;;;;5018799;28;20326;-62
2022/04/15 01:55:50;;;;;;;6.90;4.37;;;;;;;;;;4997131;28;20367;-63
2022/04/15 01:58:18;;;;;;;4.57;4.17;;;;;;;;;;5009817;28;20203;-62
2022/04/15 02:00:45;;;;;;;5.10;3.63;;;;;;;;;;4995164;28;20215;-64
2022/04/15 02:03:13;;;;;;;4.40;3.87;;;;;;;;;;5013060;28;20235;-63
2022/04/15 02:05:40;;;;;;;4.87;3.70;;;;;;;;;;5011660;28;20215;-64
2022/04/15 02:08:08;;;;;;;6.27;3.90;;;;;;;;;;4990244;28;20212;-64
2022/04/15 02:10:35;;;;;;;4.70;3.67;;;;;;;;;;4989877;28;20230;-63
2022/04/15 02:13:03;;;;;;;5.47;4.13;;;;;;;;;;5013514;28;20344;-63
2022/04/15 02:15:33;;;;;;;5.33;4.40;;;;;;;;;;5000876;28;20709;-63
2022/04/15 02:18:00;;;;;;;5.37;4.30;;;;;;;;;;4997812;28;20829;-64
2022/04/15 02:20:28;;;;;;;5.73;4.23;;;;;;;;;;5004880;28;20700;-63
2022/04/15 02:22:55;;;;;;;4.47;3.90;;;;;;;;;;4993977;28;20204;-63
2022/04/15 02:25:22;;;;;;;7.40;4.63;;;;;;;;;;4994853;28;20226;-63
2022/04/15 02:27:50;;;;;;;6.37;4.77;;;;;;;;;;4993274;28;20239;-63
2022/04/15 02:30:18;;;;;;;5.20;4.40;;;;;;;;;;5002953;28;21433;-63
2022/04/15 02:32:45;;;;;;;9.87;7.27;;;;;;;;;;4989874;28;20673;-63
2022/04/15 02:35:12;;;;;;;9.57;7.03;;;;;;;;;;4997231;28;20199;-62
2022/04/15 02:37:40;;;;;;;6.83;5.47;;;;;;;;;;5002966;28;20242;-63
2022/04/15 02:40:08;;;;;;;6.20;4.33;;;;;;;;;;5006421;28;20246;-63
2022/04/15 02:42:35;;;;;;;4.60;3.97;;;;;;;;;;5002259;28;20207;-62
2022/04/15 02:45:04;;;;;;;5.43;4.47;;;;;;;;;;4995160;28;20253;-62
2022/04/15 02:47:31;;;;;;;5.57;3.90;;;;;;;;;;4995759;28;20211;-62
2022/04/15 02:49:58;;;;;;;5.57;4.33;;;;;;;;;;5004937;28;20199;-64
2022/04/15 02:52:26;;;;;;;9.50;4.30;;;;;;;;;;5006530;28;20217;-63
2022/04/15 02:54:54;;;;;;;5.60;4.43;;;;;;;;;;5011061;28;20290;-62
2022/04/15 02:57:21;;;;;;;6.67;4.23;;;;;;;;;;4993280;28;20231;-63
2022/04/15 02:59:49;;;;;;;4.80;4.30;;;;;;;;;;5008560;28;20203;-62
2022/04/15 03:02:16;;;;;;;6.70;4.50;;;;;;;;;;5008000;28;20249;-62
2022/04/15 03:04:44;;;;;;;5.57;4.40;;;;;;;;;;4994454;28;20231;-63
2022/04/15 03:07:11;;;;;;;6.27;4.43;;;;;;;;;;4990051;28;20219;-62
2022/04/15 03:09:39;;;;;;;5.20;4.70;;;;;;;;;;4994357;28;20217;-63
2022/04/15 03:12:07;;;;;;;5.13;4.63;;;;;;;;;;4994943;28;20214;-63
2022/04/15 03:14:34;;;;;;;6.30;4.43;;;;;;;;;;5009621;28;21659;-63
2022/04/15 03:17:02;;;;;;;4.90;4.40;;;;;;;;;;5004639;28;20916;-62
2022/04/15 03:19:29;;;;;;;5.97;4.47;;;;;;;;;;5009256;28;20203;-63
2022/04/15 03:21:57;;;;;;;7.53;4.60;;;;;;;;;;4994879;28;20207;-63
2022/04/15 03:24:24;;;;;;;5.43;4.93;;;;;;;;;;4992061;28;20232;-63
2022/04/15 03:26:51;;;;;;;4.80;4.40;;;;;;;;;;5009000;28;20211;-63
2022/04/15 03:29:19;;;;;;;5.60;4.57;;;;;;;;;;5016415;28;20207;-63
2022/04/15 03:31:46;;;;;;;8.50;5.03;;;;;;;;;;4993784;28;20264;-62
2022/04/15 03:34:14;;;;;;;6.40;4.70;;;;;;;;;;5006594;28;20293;-63
2022/04/15 03:36:41;;;;;;;6.80;5.30;;;;;;;;;;5011276;28;20721;-63
2022/04/15 03:39:08;;;;;;;5.83;5.20;;;;;;;;;;4995533;28;20208;-63
2022/04/15 03:41:36;;;;;;;7.73;5.43;;;;;;;;;;4993833;28;20294;-63
2022/04/15 03:44:04;;;;;;;8.07;5.17;;;;;;;;;;4999506;28;20226;-62
2022/04/15 03:46:31;;;;;;;6.47;5.50;;;;;;;;;;4993818;28;20211;-63
2022/04/15 03:48:58;;;;;;;6.17;5.50;;;;;;;;;;4992261;28;20346;-63
2022/04/15 03:51:26;;;;;;;8.60;5.57;;;;;;;;;;5008735;28;20207;-62
2022/04/15 03:53:53;;;;;;;5.93;5.17;;;;;;;;;;5010964;28;20775;-62
2022/04/15 03:56:20;;;;;;;7.27;5.53;;;;;;;;;;4993473;28;20832;-63
2022/04/15 03:58:48;;;;;;;8.40;5.53;;;;;;;;;;4992640;28;20206;-65
2022/04/15 04:01:15;;;;;;;6.27;5.60;;;;;;;;;;5010263;28;20203;-64
2022/04/15 04:03:43;;;;;;;6.87;5.73;;;;;;;;;;5007776;28;20230;-64
2022/04/15 04:06:10;;;;;;;6.57;5.70;;;;;;;;;;4997461;28;20684;-65
2022/04/15 04:08:38;;;;;;;11.10;7.50;;;;;;;;;;4985545;28;20217;-64
2022/04/15 04:11:05;;;;;;;8.47;6.40;;;;;;;;;;5008633;28;20974;-65
2022/04/15 04:13:32;;;;;;;7.60;5.87;;;;;;;;;;4995720;28;20234;-64
2022/04/15 04:16:00;;;;;;;7.73;5.97;;;;;;;;;;5008106;28;20609;-64
2022/04/15 04:18:27;;;;;;;7.17;5.40;;;;;;;;;;4993868;28;20206;-65
2022/04/15 04:20:54;;;;;;;6.50;5.77;;;;;;;;;;4993755;28;20195;-64
2022/04/15 04:23:22;;;;;;;10.50;5.77;;;;;;;;;;4993576;28;20233;-65
2022/04/15 04:25:49;;;;;;;10.73;6.10;;;;;;;;;;4999378;28;20226;-64
2022/04/15 04:28:16;;;;;;;7.70;6.00;;;;;;;;;;4991442;28;20222;-64
2022/04/15 04:30:44;;;;;;;6.77;5.60;;;;;;;;;;4996243;28;20207;-64
2022/04/15 04:33:11;;;;;;;6.77;6.07;;;;;;;;;;4995676;28;20245;-64
2022/04/15 04:35:39;;;;;;;6.53;5.70;;;;;;;;;;5012605;28;20206;-63
2022/04/15 04:38:06;;;;;;;11.20;8.83;;;;;;;;;;5021179;28;20231;-65
2022/04/15 04:40:37;;;;;;;9.27;7.13;;;;;;;;;;5016997;28;20207;-64
2022/04/15 04:43:07;;;;;;;9.40;6.33;;;;;;;;;;4992617;28;20215;-65
2022/04/15 04:45:35;;;;;;;7.13;5.70;;;;;;;;;;4989621;28;20198;-63
2022/04/15 04:48:03;;;;;;;8.27;6.27;;;;;;;;;;5020806;28;20268;-66
2022/04/15 04:50:32;;;;;;;28.77;25.17;;;;;;;;;;5005005;28;20578;-64
2022/04/15 04:52:59;;;;;;;25.30;23.00;;;;;;;;;;5018498;28;20619;-64
2022/04/15 04:55:27;;;;;;;12.00;9.47;;;;;;;;;;4997015;28;20210;-65
2022/04/15 04:57:54;;;;;;;8.57;7.10;;;;;;;;;;4997384;28;20262;-62
2022/04/15 05:00:22;;;;;;;7.80;6.87;;;;;;;;;;5014488;28;20237;-62
2022/04/15 05:02:50;;;;;;;8.50;5.97;;;;;;;;;;5017172;28;20320;-62
2022/04/15 05:05:17;;;;;;;6.67;5.60;;;;;;;;;;5012182;28;20206;-67
2022/04/15 05:07:45;;;;;;;6.80;5.67;;;;;;;;;;5020266;28;20237;-65
2022/04/15 05:10:13;;;;;;;6.13;5.33;;;;;;;;;;5028712;28;20719;-63
2022/04/15 05:12:41;;;;;;;8.03;5.90;;;;;;;;;;5027746;28;20219;-64
2022/04/15 05:15:11;;;;;;;6.80;6.20;;;;;;;;;;5024214;28;20365;-63
2022/04/15 05:17:39;;;;;;;8.20;5.73;;;;;;;;;;5017270;28;20324;-64
2022/04/15 05:20:07;;;;;;;7.43;6.03;;;;;;;;;;5015918;28;20196;-63
2022/04/15 05:22:36;;;;;;;11.13;6.53;;;;;;;;;;5018422;28;20221;-64
2022/04/15 05:25:05;;;;;;;9.40;5.70;;;;;;;;;;5017046;28;20234;-64
2022/04/15 05:27:32;;;;;;;6.50;5.30;;;;;;;;;;5023101;28;20199;-63
2022/04/15 05:30:00;;;;;;;6.10;5.23;;;;;;;;;;5007009;28;20269;-63
2022/04/15 05:32:27;;;;;;;7.40;5.97;;;;;;;;;;5022553;28;20281;-62
2022/04/15 05:34:54;;;;;;;6.13;5.07;;;;;;;;;;5010410;28;20239;-62
2022/04/15 05:37:22;;;;;;;6.17;5.50;;;;;;;;;;5014245;28;20273;-62
2022/04/15 05:39:49;;;;;;;6.10;5.50;;;;;;;;;;5009907;28;20203;-63
2022/04/15 05:42:17;;;;;;;7.50;5.43;;;;;;;;;;5028965;28;20206;-63
2022/04/15 05:44:44;;;;;;;6.57;5.43;;;;;;;;;;5034964;28;20223;-63
2022/04/15 05:47:13;;;;;;;8.97;6.77;;;;;;;;;;5008581;28;20211;-64
2022/04/15 05:49:40;;;;;;;6.87;5.93;;;;;;;;;;5006316;28;20211;-63
2022/04/15 05:52:09;;;;;;;5.87;5.27;;;;;;;;;;5007155;28;20830;-63
2022/04/15 05:54:36;;;;;;;6.30;5.70;;;;;;;;;;5027116;28;20253;-63
2022/04/15 05:57:04;;;;;;;7.80;5.90;;;;;;;;;;5026151;28;20249;-63
2022/04/15 05:59:31;;;;;;;9.80;5.27;;;;;;;;;;5021508;28;20692;-63
2022/04/15 06:01:59;;;;;;;9.73;5.87;;;;;;;;;;5009398;28;20202;-63
2022/04/15 06:04:26;;;;;;;9.33;5.53;;;;;;;;;;5004142;28;20230;-63
2022/04/15 06:06:54;;;;;;;9.60;5.63;;;;;;;;;;4999464;28;20260;-63
2022/04/15 06:09:21;;;;;;;7.27;5.53;;;;;;;;;;5009065;28;20215;-62
2022/04/15 06:11:52;;;;;;;8.50;6.20;;;;;;;;;;4997730;28;20203;-63
2022/04/15 06:14:23;;;;;;;5.80;5.00;;;;;;;;;;5023998;28;20309;-63
2022/04/15 06:16:51;;;;;;;6.63;5.40;;;;;;;;;;5001222;28;20219;-63
2022/04/15 06:19:18;;;;;;;6.80;5.27;;;;;;;;;;5013274;28;20631;-63
2022/04/15 06:21:52;;;;;;;6.40;5.40;;;;;;;;;;4999241;28;20248;-62
2022/04/15 06:24:19;;;;;;;8.10;5.87;;;;;;;;;;5011006;28;20258;-63
2022/04/15 06:26:46;;;;;;;6.73;5.50;;;;;;;;;;4997102;28;20227;-64
2022/04/15 06:29:15;;;;;;;6.10;5.07;;;;;;;;;;5011290;28;20234;-64
2022/04/15 06:31:43;;;;;;;7.53;5.50;;;;;;;;;;5018736;28;20320;-63
2022/04/15 06:34:11;;;;;;;6.10;5.50;;;;;;;;;;4995245;28;20223;-64
2022/04/15 06:36:38;;;;;;;6.40;5.73;;;;;;;;;;5016046;28;20227;-62
2022/04/15 06:39:06;;;;;;;7.13;5.43;;;;;;;;;;5001278;28;20207;-61
2022/04/15 06:41:34;;;;;;;6.40;5.37;;;;;;;;;;5015491;28;20202;-62
2022/04/15 06:44:02;;;;;;;6.83;5.80;;;;;;;;;;5008026;28;20242;-63
2022/04/15 06:46:29;;;;;;;5.70;5.20;;;;;;;;;;4999554;28;20202;-63
2022/04/15 06:48:57;;;;;;;6.10;5.50;;;;;;;;;;5019237;28;20311;-63
2022/04/15 06:51:27;;;;;;;7.57;5.43;;;;;;;;;;4992913;28;20203;-62
2022/04/15 06:53:54;;;;;;;6.23;5.63;;;;;;;;;;4997173;28;20744;-63
2022/04/15 06:56:21;;;;;;;5.93;5.33;;;;;;;;;;5000694;28;20261;-63
2022/04/15 06:58:49;;;;;;;6.13;4.97;;;;;;;;;;4999918;28;20273;-64
2022/04/15 07:01:16;;;;;;;6.70;4.83;;;;;;;;;;5013638;28;20198;-65
2022/04/15 07:03:44;;;;;;;6.40;5.30;;;;;;;;;;4989252;28;20226;-62
2022/04/15 07:06:11;;;;;;;5.47;4.97;;;;;;;;;;5010783;28;20664;-64
2022/04/15 07:08:39;;;;;;;5.70;5.10;;;;;;;;;;5013808;28;20203;-63
2022/04/15 07:11:06;;;;;;;6.70;4.50;;;;;;;;;;4997680;28;20211;-63
2022/04/15 07:13:38;;;;;;;5.27;4.23;;;;;;;;;;4993125;28;20767;-63
2022/04/15 07:16:07;;;;;;;5.30;4.40;;;;;;;;;;5019078;28;20219;-63
2022/04/15 07:18:35;;;;;;;4.93;4.20;;;;;;;;;;4981976;28;20230;-63
2022/04/15 07:21:02;;;;;;;5.07;4.57;;;;;;;;;;5004898;28;20199;-63
2022/04/15 07:23:29;;;;;;;6.10;4.60;;;;;;;;;;5014836;28;20226;-63
2022/04/15 07:25:57;;;;;;;4.63;4.23;;;;;;;;;;4997200;28;20703;-62
2022/04/15 07:28:24;;;;;;;5.30;4.23;;;;;;;;;;4996638;28;20218;-62
2022/04/15 07:30:52;;;;;;;4.27;3.50;;;;;;;;;;4992121;28;20230;-64
2022/04/15 07:33:19;;;;;;;5.80;3.37;;;;;;;;;;5016383;28;20807;-62
2022/04/15 07:35:48;;;;;;;4.43;3.10;;;;;;;;;;4999155;28;20344;-62
2022/04/15 07:38:15;;;;;;;3.47;3.17;;;;;;;;;;4991361;28;20250;-62
2022/04/15 07:40:42;;;;;;;5.47;3.10;;;;;;;;;;4994530;28;20202;-62
2022/04/15 07:43:10;;;;;;;5.50;3.40;;;;;;;;;;4990740;28;20277;-64
2022/04/15 07:45:37;;;;;;;3.70;3.40;;;;;;;;;;5000653;28;20226;-62
2022/04/15 07:48:05;;;;;;;2.73;2.50;;;;;;;;;;4997042;28;20269;-62
2022/04/15 07:50:33;;;;;;;3.87;2.90;;;;;;;;;;4992437;28;20214;-63
2022/04/15 07:53:01;;;;;;;3.00;2.80;;;;;;;;;;5005186;28;20807;-63
2022/04/15 07:55:28;;;;;;;4.10;3.50;;;;;;;;;;5018992;28;20207;-63
2022/04/15 07:57:56;;;;;;;4.50;3.20;;;;;;;;;;5018588;28;20235;-63
2022/04/15 08:00:23;;;;;;;4.67;3.57;;;;;;;;;;5006426;28;20210;-62
2022/04/15 08:02:51;;;;;;;4.40;3.97;;;;;;;;;;4999991;28;20211;-64
2022/04/15 08:05:18;;;;;;;4.53;3.73;;;;;;;;;;4998715;28;20823;-62
2022/04/15 08:07:46;;;;;;;4.73;3.83;;;;;;;;;;4986458;28;20621;-63
2022/04/15 08:10:13;;;;;;;5.70;4.13;;;;;;;;;;4993315;28;20210;-63
2022/04/15 08:12:41;;;;;;;4.50;4.10;;;;;;;;;;5007582;28;20267;-63
2022/04/15 08:15:08;;;;;;;6.50;4.10;;;;;;;;;;4998286;28;20607;-63
2022/04/15 08:17:36;;;;;;;5.30;4.40;;;;;;;;;;5006486;28;20238;-63
2022/04/15 08:20:04;;;;;;;4.10;3.70;;;;;;;;;;4991409;28;20211;-63
2022/04/15 08:22:35;;;;;;;5.97;4.72;;;;;;;;;;5006294;28;20476;-63
2022/04/15 08:25:06;;;;;;;4.35;3.85;;;;;;;;;;5000478;28;20242;-63
2022/04/15 08:27:34;;;;;;;4.00;3.70;;;;;;;;;;5006325;28;20235;-63
2022/04/15 08:30:06;;;;;;;4.07;3.50;;;;;;;;;;4999479;28;20276;-63
2022/04/15 08:32:43;;;;;;;4.90;4.32;;;;;;;;;;5015044;28;20286;-63
2022/04/15 08:35:11;;;;;;;4.85;3.65;;;;;;;;;;5008817;28;20833;-63
2022/04/15 08:37:39;;;;;;;4.22;3.80;;;;;;;;;;5014903;28;20227;-63
2022/04/15 08:40:07;;;;;;;4.53;4.07;;;;;;;;;;5003464;28;20211;-63
2022/04/15 08:42:35;;;;;;;4.97;4.07;;;;;;;;;;4997323;28;20261;-62
2022/04/15 08:45:02;;;;;;;4.97;4.47;;;;;;;;;;5021723;28;20230;-63
2022/04/15 08:47:31;;;;;;;4.27;3.97;;;;;;;;;;5003014;28;20202;-62
2022/04/15 08:49:59;;;;;;;5.17;4.20;;;;;;;;;;5005795;28;20210;-63
2022/04/15 08:52:27;;;;;;;7.93;5.93;;;;;;;;;;5019078;28;20225;-62
2022/04/15 08:54:54;;;;;;;6.43;5.82;;;;;;;;;;5005838;28;20779;-64
2022/04/15 08:57:22;;;;;;;5.63;5.13;;;;;;;;;;4997279;28;20226;-63
2022/04/15 08:59:50;;;;;;;6.70;5.68;;;;;;;;;;5002716;28;20207;-61
2022/04/15 09:02:31;;;;;;;7.63;5.70;;;;;;;;;;5002931;28;20204;-63
2022/04/15 09:04:58;;;;;;;8.57;6.70;;;;;;;;;;5014823;28;20219;-62
2022/04/15 09:07:29;;;;;;;7.37;6.00;;;;;;;;;;5006045;28;20210;-63
2022/04/15 09:10:03;;;;;;;7.20;5.97;;;;;;;;;;5009535;28;20217;-63
2022/04/15 09:12:35;;;;;;;14.05;10.05;;;;;;;;;;5007726;28;20222;-63
2022/04/15 09:15:08;;;;;;;9.32;7.25;;;;;;;;;;5019296;28;20325;-62
2022/04/15 09:17:49;;;;;;;7.63;6.93;;;;;;;;;;5005181;28;20317;-62
2022/04/15 09:20:18;;;;;;;6.78;6.07;;;;;;;;;;5020829;28;20608;-63
2022/04/15 09:22:45;;;;;;;6.57;5.97;;;;;;;;;;4990034;28;20211;-62
2022/04/15 09:25:13;;;;;;;7.23;6.23;;;;;;;;;;5004640;28;20619;-62
2022/04/15 09:27:41;;;;;;;9.03;6.57;;;;;;;;;;5001563;28;20306;-62
2022/04/15 09:30:09;;;;;;;9.07;6.80;;;;;;;;;;5004557;28;20299;-63
2022/04/15 09:32:39;;;;;;;7.47;6.67;;;;;;;;;;4994152;28;20277;-63
2022/04/15 09:35:08;;;;;;;10.17;6.47;;;;;;;;;;5009778;28;20715;-63
2022/04/15 09:37:38;;;;;;;7.65;6.85;;;;;;;;;;4992136;28;20571;-63
2022/04/15 09:40:09;;;;;;;6.88;5.68;;;;;;;;;;4987823;28;20202;-63
2022/04/15 09:42:36;;;;;;;6.18;5.53;;;;;;;;;;5016463;28;20211;-63
2022/04/15 09:45:14;;;;;;;7.05;5.85;;;;;;;;;;4997984;28;20231;-63
2022/04/15 09:47:43;;;;;;;4.80;4.40;;;;;;;;;;4996370;28;20207;-64
2022/04/15 09:50:31;;;;;;;5.93;5.05;;;;;;;;;;5009946;28;20265;-63
2022/04/15 09:53:14;;;;;;;4.90;3.73;;;;;;;;;;5006108;28;20229;-64
2022/04/15 09:55:43;;;;;;;4.03;3.58;;;;;;;;;;5007781;28;20215;-64
2022/04/15 09:58:14;;;;;;;6.13;5.25;;;;;;;;;;5021868;28;20272;-63
2022/04/15 10:00:43;;;;;;;6.60;5.05;;;;;;;;;;5033470;28;20643;-62
2022/04/15 10:03:12;;;;;;;3.50;2.90;;;;;;;;;;5005271;28;20643;-64
2022/04/15 10:05:39;;;;;;;4.28;3.63;;;;;;;;;;5005526;28;20290;-62
2022/04/15 10:08:08;;;;;;;4.00;3.58;;;;;;;;;;5021398;28;20209;-64
2022/04/15 10:10:35;;;;;;;6.00;5.25;;;;;;;;;;4998690;28;20218;-64
2022/04/15 10:13:07;;;;;;;5.07;4.50;;;;;;;;;;5004609;28;20712;-64
2022/04/15 10:15:37;;;;;;;4.57;3.70;;;;;;;;;;5024101;28;20203;-64
2022/04/15 10:18:05;;;;;;;5.40;3.83;;;;;;;;;;4999354;28;20242;-64
2022/04/15 10:20:32;;;;;;;4.85;4.45;;;;;;;;;;5016997;28;20210;-65
2022/04/15 10:23:01;;;;;;;6.55;5.32;;;;;;;;;;4993132;28;20218;-64
2022/04/15 10:25:29;;;;;;;6.25;5.40;;;;;;;;;;5011689;28;20878;-64
2022/04/15 10:28:06;;;;;;;4.95;4.40;;;;;;;;;;5001266;28;20202;-63
2022/04/15 10:30:37;;;;;;;5.80;5.22;;;;;;;;;;5019456;28;20278;-63
2022/04/15 10:33:05;;;;;;;5.53;5.03;;;;;;;;;;5023594;28;20254;-64
2022/04/15 10:35:35;;;;;;;7.38;5.50;;;;;;;;;;5016149;28;20207;-63
2022/04/15 10:38:10;;;;;;;7.40;5.20;;;;;;;;;;5027081;28;20237;-63
2022/04/15 10:40:42;;;;;;;5.10;4.22;;;;;;;;;;5023139;28;20209;-63
2022/04/15 10:43:23;;;;;;;4.80;4.40;;;;;;;;;;5018436;28;20726;-64
2022/04/15 10:46:15;;;;;;;7.57;5.70;;;;;;;;;;5021436;28;20382;-65
2022/04/15 10:48:42;;;;;;;4.90;4.50;;;;;;;;;;5003429;28;20292;-63
2022/04/15 10:51:23;;;;;;;3.53;3.17;;;;;;;;;;5018609;28;20245;-65
2022/04/15 10:53:50;;;;;;;7.65;4.88;;;;;;;;;;5024633;28;20291;-63
2022/04/15 10:56:23;;;;;;;6.18;4.85;;;;;;;;;;5001992;28;20214;-65
2022/04/15 11:02:00;;;;;;;5.10;4.60;;;;;;;;;;5022484;28;20625;-64
2022/04/15 11:04:35;;;;;;;5.57;4.80;;;;;;;;;;4994793;28;20603;-66
2022/04/15 11:07:14;;;;;;;6.47;4.55;;;;;;;;;;5010128;28;20206;-64
2022/04/15 11:09:41;;;;;;;6.47;5.80;;;;;;;;;;5018308;28;20297;-64
2022/04/15 11:12:10;;;;;;;8.10;5.13;;;;;;;;;;4999087;28;20215;-66
2022/04/15 11:14:43;;;;;;;3.75;3.30;;;;;;;;;;5007685;28;20234;-64
2022/04/15 11:17:13;;;;;;;4.50;3.92;;;;;;;;;;4997752;28;20698;-63
2022/04/15 11:19:41;;;;;;;5.47;4.20;;;;;;;;;;4996582;28;20712;-63
2022/04/15 11:22:08;;;;;;;5.60;5.10;;;;;;;;;;5006061;28;20245;-63
2022/04/15 11:24:38;;;;;;;5.35;4.20;;;;;;;;;;5014053;28;20231;-66
2022/04/15 11:27:10;;;;;;;4.35;3.58;;;;;;;;;;4992208;28;20211;-63
2022/04/15 11:29:38;;;;;;;4.63;4.22;;;;;;;;;;5022535;28;20335;-65
2022/04/15 11:32:06;;;;;;;5.28;4.78;;;;;;;;;;5000593;28;20211;-63
2022/04/15 11:34:34;;;;;;;5.05;3.90;;;;;;;;;;5024411;28;20722;-63
2022/04/15 11:37:03;;;;;;;7.38;5.70;;;;;;;;;;5002857;28;20396;-64
2022/04/15 11:39:35;;;;;;;7.28;5.30;;;;;;;;;;5023639;28;20661;-65
2022/04/15 11:42:12;;;;;;;6.88;5.13;;;;;;;;;;5029909;28;20206;-65
2022/04/15 11:44:41;;;;;;;5.40;4.90;;;;;;;;;;5013200;28;20218;-65
2022/04/15 11:47:21;;;;;;;6.18;4.80;;;;;;;;;;5012586;28;20291;-65
2022/04/15 11:49:52;;;;;;;5.35;4.70;;;;;;;;;;5006729;28;20216;-65
2022/04/15 11:52:27;;;;;;;5.57;4.95;;;;;;;;;;5005161;28;20215;-63
2022/04/15 11:54:58;;;;;;;7.22;5.25;;;;;;;;;;5007308;28;20238;-63
2022/04/15 11:57:29;;;;;;;7.90;6.68;;;;;;;;;;5016236;28;20214;-63
2022/04/15 11:59:56;;;;;;;7.10;6.40;;;;;;;;;;5018206;28;20231;-64
2022/04/15 12:02:25;;;;;;;7.93;6.10;;;;;;;;;;5004841;28;20217;-65
2022/04/15 12:04:53;;;;;;;6.63;5.93;;;;;;;;;;5006970;28;20227;-64
2022/04/15 12:07:21;;;;;;;10.35;8.68;;;;;;;;;;5009023;28;20211;-64
2022/04/15 12:09:50;;;;;;;12.43;8.75;;;;;;;;;;5008385;28;20706;-64
2022/04/15 12:12:18;;;;;;;8.80;7.90;;;;;;;;;;5006550;28;20219;-64
2022/04/15 12:14:45;;;;;;;8.05;7.20;;;;;;;;;;5017536;28;20247;-65
2022/04/15 12:17:14;;;;;;;8.70;7.80;;;;;;;;;;5009275;28;20202;-64
2022/04/15 12:19:42;;;;;;;8.05;7.25;;;;;;;;;;5026284;28;20230;-64
2022/04/15 12:22:09;;;;;;;8.60;7.65;;;;;;;;;;5010538;28;20657;-64
2022/04/15 12:24:37;;;;;;;8.10;7.20;;;;;;;;;;5006774;28;20246;-64
2022/04/15 12:27:05;;;;;;;7.38;6.68;;;;;;;;;;5020251;28;20198;-65
2022/04/15 12:29:48;;;;;;;9.18;8.23;;;;;;;;;;5005128;28;20235;-64
2022/04/15 12:32:34;;;;;;;10.07;7.90;;;;;;;;;;5015276;28;20331;-65
2022/04/15 12:35:01;;;;;;;9.25;8.35;;;;;;;;;;5004198;28;21002;-64
2022/04/15 12:37:35;;;;;;;7.78;6.90;;;;;;;;;;5003865;28;20203;-65
2022/04/15 12:40:07;;;;;;;6.93;6.22;;;;;;;;;;5017152;28;20226;-66
2022/04/15 12:42:36;;;;;;;7.55;6.70;;;;;;;;;;5025470;28;20238;-64
2022/04/15 12:45:09;;;;;;;6.30;5.70;;;;;;;;;;5003832;28;20229;-65
2022/04/15 12:47:37;;;;;;;6.60;6.00;;;;;;;;;;5020862;28;20207;-64
2022/04/15 12:50:23;;;;;;;5.72;5.13;;;;;;;;;;5021025;28;20271;-64
2022/04/15 12:52:51;;;;;;;6.00;5.40;;;;;;;;;;5006078;28;20210;-63
2022/04/15 12:55:25;;;;;;;6.03;5.43;;;;;;;;;;5022151;28;20222;-64
2022/04/15 12:57:53;;;;;;;6.35;5.68;;;;;;;;;;5027425;28;20634;-64
2022/04/15 13:00:20;;;;;;;6.40;5.80;;;;;;;;;;5023168;28;20516;-64
2022/04/15 13:02:48;;;;;;;5.82;4.60;;;;;;;;;;5006862;28;20219;-65
2022/04/15 13:05:16;;;;;;;4.88;4.30;;;;;;;;;;5024051;28;20298;-66
2022/04/15 13:07:43;;;;;;;6.13;5.63;;;;;;;;;;5019690;28;20234;-66
2022/04/15 13:10:11;;;;;;;5.50;4.70;;;;;;;;;;5016949;28;20313;-64
2022/04/15 13:12:58;;;;;;;5.97;4.85;;;;;;;;;;5009016;28;20268;-63
2022/04/15 13:15:26;;;;;;;5.85;5.25;;;;;;;;;;5014056;28;20218;-64
2022/04/15 13:17:54;;;;;;;5.68;5.18;;;;;;;;;;5009073;28;20734;-63
2022/04/15 13:20:21;;;;;;;5.63;5.10;;;;;;;;;;5007787;28;20246;-63
2022/04/15 13:22:49;;;;;;;6.10;5.55;;;;;;;;;;5026615;28;20203;-63
2022/04/15 13:25:16;;;;;;;6.97;6.28;;;;;;;;;;5028981;28;20263;-63
2022/04/15 13:27:43;;;;;;;6.97;6.28;;;;;;;;;;5006355;28;20221;-64
2022/04/15 13:30:11;;;;;;;14.18;9.30;;;;;;;;;;5009569;28;20218;-64
2022/04/15 13:32:38;;;;;;;7.40;6.05;;;;;;;;;;5025229;28;20256;-63
2022/04/15 13:35:06;;;;;;;6.15;5.55;;;;;;;;;;5025942;28;20237;-63
2022/04/15 13:37:34;;;;;;;5.82;5.35;;;;;;;;;;5008017;28;20657;-63
2022/04/15 13:40:02;;;;;;;5.80;5.25;;;;;;;;;;5007531;28;20235;-64
2022/04/15 13:42:29;;;;;;;5.28;4.60;;;;;;;;;;5000603;28;20257;-65
2022/04/15 13:44:57;;;;;;;5.63;4.80;;;;;;;;;;5007039;28;20227;-65
2022/04/15 13:47:24;;;;;;;5.63;4.57;;;;;;;;;;5019635;28;20665;-65
2022/04/15 13:49:51;;;;;;;5.45;4.05;;;;;;;;;;5021860;28;20724;-64
2022/04/15 13:57:54;;;;;;;7.47;5.28;;;;;;;;;;5020586;28;20207;-63
2022/04/15 14:00:22;;;;;;;6.15;4.35;;;;;;;;;;5004905;28;21294;-64
2022/04/15 14:02:49;;;;;;;5.30;4.80;;;;;;;;;;5009170;28;20198;-63
2022/04/15 14:05:17;;;;;;;5.18;4.63;;;;;;;;;;5023988;28;20203;-65
2022/04/15 14:07:44;;;;;;;5.90;5.30;;;;;;;;;;5013397;28;20641;-64
2022/04/15 14:10:11;;;;;;;7.25;5.70;;;;;;;;;;5004860;28;20249;-64
2022/04/15 14:12:39;;;;;;;7.72;6.95;;;;;;;;;;5016706;28;20215;-63
2022/04/15 14:15:07;;;;;;;6.50;5.53;;;;;;;;;;5001994;28;20751;-63
2022/04/15 14:17:34;;;;;;;8.52;5.85;;;;;;;;;;5005947;28;20213;-62
2022/04/15 14:20:02;;;;;;;6.57;5.80;;;;;;;;;;5008108;28;20229;-64
2022/04/15 14:22:29;;;;;;;5.43;4.47;;;;;;;;;;5008596;28;20354;-64
2022/04/15 14:24:56;;;;;;;4.50;4.10;;;;;;;;;;5004924;28;20248;-65
2022/04/15 14:27:24;;;;;;;5.60;4.20;;;;;;;;;;5008959;28;20250;-64
2022/04/15 14:29:54;;;;;;;4.68;4.18;;;;;;;;;;5006899;28;20211;-66
2022/04/15 14:32:22;;;;;;;4.43;4.13;;;;;;;;;;5022620;28;20256;-65
2022/04/15 14:34:52;;;;;;;4.60;4.20;;;;;;;;;;5008450;28;20624;-65
2022/04/15 14:37:20;;;;;;;3.92;3.53;;;;;;;;;;5011681;28;20289;-64
2022/04/15 14:39:48;;;;;;;4.10;3.67;;;;;;;;;;5015536;28;20246;-64
2022/04/15 14:42:16;;;;;;;3.80;3.28;;;;;;;;;;5001683;28;20246;-63
2022/04/15 14:44:44;;;;;;;4.82;3.85;;;;;;;;;;5021276;28;20215;-64
2022/04/15 14:47:12;;;;;;;4.90;4.15;;;;;;;;;;5005322;28;20207;-64
2022/04/15 14:49:40;;;;;;;4.07;3.60;;;;;;;;;;5005657;28;20215;-64
2022/04/15 14:52:08;;;;;;;4.28;3.95;;;;;;;;;;5002100;28;20225;-64
2022/04/15 14:54:35;;;;;;;6.60;5.60;;;;;;;;;;5005765;28;20238;-64
2022/04/15 14:57:04;;;;;;;4.30;3.90;;;;;;;;;;5011107;28;20211;-63
2022/04/15 14:59:32;;;;;;;5.22;4.00;;;;;;;;;;5006183;28;20226;-64
2022/04/15 15:02:01;;;;;;;4.82;4.30;;;;;;;;;;5005626;28;20260;-64